sensor_id;sensor_type;location;lat;lon;timestamp;temperature;humidity
32614;DHT22;19031;51.400;6.770;2024-01-30T00:01:05;8.80;99.90
32614;DHT22;19031;51.400;6.770;2024-01-30T00:03:30;8.80;99.90
32614;DHT22;19031;51.400;6.770;2024-01-30T00:05:56;8.70;99.90
32614;DHT22;19031;51.400;6.770;2024-01-30T00:08:21;8.90;99.90
32614;DHT22;19031;51.400;6.770;2024-01-30T00:10:47;8.80;99.90
32614;DHT22;19031;51.400;6.770;2024-01-30T00:13:13;8.80;99.90
32614;DHT22;19031;51.400;6.770;2024-01-30T00:15:39;8.80;99.90
32614;DHT22;19031;51.400;6.770;2024-01-30T00:18:05;8.70;99.90
32614;DHT22;19031;51.400;6.770;2024-01-30T00:20:30;8.70;99.90
32614;DHT22;19031;51.400;6.770;2024-01-30T00:22:56;8.70;99.90
32614;DHT22;19031;51.400;6.770;2024-01-30T00:25:21;8.70;99.90
32614;DHT22;19031;51.400;6.770;2024-01-30T00:27:47;8.60;99.90
32614;DHT22;19031;51.400;6.770;2024-01-30T00:30:12;8.60;99.90
32614;DHT22;19031;51.400;6.770;2024-01-30T00:32:38;8.50;99.90
32614;DHT22;19031;51.400;6.770;2024-01-30T00:35:04;8.60;99.90
32614;DHT22;19031;51.400;6.770;2024-01-30T00:37:30;8.50;99.90
32614;DHT22;19031;51.400;6.770;2024-01-30T00:39:57;8.50;99.90
32614;DHT22;19031;51.400;6.770;2024-01-30T00:42:22;8.50;99.90
32614;DHT22;19031;51.400;6.770;2024-01-30T00:44:49;8.50;99.90
32614;DHT22;19031;51.400;6.770;2024-01-30T00:47:15;8.60;99.90
32614;DHT22;19031;51.400;6.770;2024-01-30T00:49:40;8.50;99.90
32614;DHT22;19031;51.400;6.770;2024-01-30T00:52:06;8.60;99.90
32614;DHT22;19031;51.400;6.770;2024-01-30T00:54:31;8.50;99.90
32614;DHT22;19031;51.400;6.770;2024-01-30T00:56:57;8.60;99.90
32614;DHT22;19031;51.400;6.770;2024-01-30T00:59:22;8.50;99.90
32614;DHT22;19031;51.400;6.770;2024-01-30T01:01:48;8.40;99.90
32614;DHT22;19031;51.400;6.770;2024-01-30T01:04:13;8.40;99.90
32614;DHT22;19031;51.400;6.770;2024-01-30T01:06:39;8.40;99.90
32614;DHT22;19031;51.400;6.770;2024-01-30T01:09:07;8.30;99.90
32614;DHT22;19031;51.400;6.770;2024-01-30T01:11:33;8.40;99.90
32614;DHT22;19031;51.400;6.770;2024-01-30T01:13:59;8.30;99.90
32614;DHT22;19031;51.400;6.770;2024-01-30T01:16:24;8.30;99.90
32614;DHT22;19031;51.400;6.770;2024-01-30T01:18:50;8.30;99.90
32614;DHT22;19031;51.400;6.770;2024-01-30T01:21:15;8.30;99.90
32614;DHT22;19031;51.400;6.770;2024-01-30T01:23:41;8.30;99.90
32614;DHT22;19031;51.400;6.770;2024-01-30T01:26:08;8.20;99.90
32614;DHT22;19031;51.400;6.770;2024-01-30T01:28:35;8.20;99.90
32614;DHT22;19031;51.400;6.770;2024-01-30T01:31:00;8.20;99.90
32614;DHT22;19031;51.400;6.770;2024-01-30T01:33:31;8.20;99.90
32614;DHT22;19031;51.400;6.770;2024-01-30T01:35:58;8.20;99.90
32614;DHT22;19031;51.400;6.770;2024-01-30T01:38:23;8.20;99.90
32614;DHT22;19031;51.400;6.770;2024-01-30T01:40:49;8.20;99.90
32614;DHT22;19031;51.400;6.770;2024-01-30T01:43:15;8.20;99.90
32614;DHT22;19031;51.400;6.770;2024-01-30T01:45:40;8.20;99.90
32614;DHT22;19031;51.400;6.770;2024-01-30T01:48:06;8.20;99.90
32614;DHT22;19031;51.400;6.770;2024-01-30T01:50:33;8.20;99.90
32614;DHT22;19031;51.400;6.770;2024-01-30T01:52:59;8.20;99.90
32614;DHT22;19031;51.400;6.770;2024-01-30T01:55:25;8.20;99.90
32614;DHT22;19031;51.400;6.770;2024-01-30T01:57:53;8.30;99.90
32614;DHT22;19031;51.400;6.770;2024-01-30T02:00:19;8.20;99.90
32614;DHT22;19031;51.400;6.770;2024-01-30T02:02:46;8.30;99.90
32614;DHT22;19031;51.400;6.770;2024-01-30T02:05:12;8.10;99.90
32614;DHT22;19031;51.400;6.770;2024-01-30T02:07:38;8.20;99.90
32614;DHT22;19031;51.400;6.770;2024-01-30T02:10:04;8.20;99.90
32614;DHT22;19031;51.400;6.770;2024-01-30T02:12:30;8.20;99.90
32614;DHT22;19031;51.400;6.770;2024-01-30T02:14:55;8.20;99.90
32614;DHT22;19031;51.400;6.770;2024-01-30T02:17:21;8.20;99.90
32614;DHT22;19031;51.400;6.770;2024-01-30T02:19:48;8.10;99.90
32614;DHT22;19031;51.400;6.770;2024-01-30T02:22:14;8.10;99.90
32614;DHT22;19031;51.400;6.770;2024-01-30T02:24:40;8.00;99.90
32614;DHT22;19031;51.400;6.770;2024-01-30T02:27:05;8.10;99.90
32614;DHT22;19031;51.400;6.770;2024-01-30T02:29:31;8.10;99.90
32614;DHT22;19031;51.400;6.770;2024-01-30T02:31:57;8.10;99.90
32614;DHT22;19031;51.400;6.770;2024-01-30T02:34:23;8.10;99.90
32614;DHT22;19031;51.400;6.770;2024-01-30T02:36:48;8.00;99.90
32614;DHT22;19031;51.400;6.770;2024-01-30T02:39:14;8.10;99.90
32614;DHT22;19031;51.400;6.770;2024-01-30T02:41:40;8.20;99.90
32614;DHT22;19031;51.400;6.770;2024-01-30T02:44:05;8.10;99.90
32614;DHT22;19031;51.400;6.770;2024-01-30T02:46:31;8.10;99.90
32614;DHT22;19031;51.400;6.770;2024-01-30T02:48:56;8.10;99.90
32614;DHT22;19031;51.400;6.770;2024-01-30T02:51:22;8.10;99.90
32614;DHT22;19031;51.400;6.770;2024-01-30T02:53:48;8.10;99.90
32614;DHT22;19031;51.400;6.770;2024-01-30T02:56:13;8.20;99.90
32614;DHT22;19031;51.400;6.770;2024-01-30T02:58:39;8.20;99.90
32614;DHT22;19031;51.400;6.770;2024-01-30T03:01:08;8.20;99.90
32614;DHT22;19031;51.400;6.770;2024-01-30T03:03:34;8.20;99.90
32614;DHT22;19031;51.400;6.770;2024-01-30T03:06:01;8.20;99.90
32614;DHT22;19031;51.400;6.770;2024-01-30T03:08:27;8.20;99.90
32614;DHT22;19031;51.400;6.770;2024-01-30T03:10:53;8.30;99.90
32614;DHT22;19031;51.400;6.770;2024-01-30T03:13:18;8.20;99.90
32614;DHT22;19031;51.400;6.770;2024-01-30T03:15:44;8.20;99.90
32614;DHT22;19031;51.400;6.770;2024-01-30T03:18:10;8.30;99.90
32614;DHT22;19031;51.400;6.770;2024-01-30T03:20:35;8.20;99.90
32614;DHT22;19031;51.400;6.770;2024-01-30T03:23:01;8.20;99.90
32614;DHT22;19031;51.400;6.770;2024-01-30T03:25:26;8.30;99.90
32614;DHT22;19031;51.400;6.770;2024-01-30T03:27:52;8.20;99.90
32614;DHT22;19031;51.400;6.770;2024-01-30T03:30:18;8.10;99.90
32614;DHT22;19031;51.400;6.770;2024-01-30T03:32:44;8.20;99.90
32614;DHT22;19031;51.400;6.770;2024-01-30T03:35:10;8.20;99.90
32614;DHT22;19031;51.400;6.770;2024-01-30T03:37:35;8.20;99.90
32614;DHT22;19031;51.400;6.770;2024-01-30T03:40:02;8.20;99.90
32614;DHT22;19031;51.400;6.770;2024-01-30T03:42:28;8.10;99.90
32614;DHT22;19031;51.400;6.770;2024-01-30T03:44:54;8.20;99.90
32614;DHT22;19031;51.400;6.770;2024-01-30T03:47:20;8.20;99.90
32614;DHT22;19031;51.400;6.770;2024-01-30T03:49:46;8.20;99.90
32614;DHT22;19031;51.400;6.770;2024-01-30T03:52:12;8.20;99.90
32614;DHT22;19031;51.400;6.770;2024-01-30T03:54:38;8.20;99.90
32614;DHT22;19031;51.400;6.770;2024-01-30T03:57:03;8.10;99.90
32614;DHT22;19031;51.400;6.770;2024-01-30T03:59:29;8.10;99.90
32614;DHT22;19031;51.400;6.770;2024-01-30T04:01:55;8.10;99.90
32614;DHT22;19031;51.400;6.770;2024-01-30T04:04:20;8.20;99.90
32614;DHT22;19031;51.400;6.770;2024-01-30T04:06:46;8.00;99.90
32614;DHT22;19031;51.400;6.770;2024-01-30T04:09:13;8.00;99.90
32614;DHT22;19031;51.400;6.770;2024-01-30T04:11:39;8.00;99.90
32614;DHT22;19031;51.400;6.770;2024-01-30T04:14:05;8.00;99.90
32614;DHT22;19031;51.400;6.770;2024-01-30T04:16:30;8.00;99.90
32614;DHT22;19031;51.400;6.770;2024-01-30T04:18:57;7.90;99.90
32614;DHT22;19031;51.400;6.770;2024-01-30T04:21:23;7.90;99.90
32614;DHT22;19031;51.400;6.770;2024-01-30T04:23:50;8.00;99.90
32614;DHT22;19031;51.400;6.770;2024-01-30T04:26:16;7.80;99.90
32614;DHT22;19031;51.400;6.770;2024-01-30T04:28:41;7.90;99.90
32614;DHT22;19031;51.400;6.770;2024-01-30T04:31:07;7.90;99.90
32614;DHT22;19031;51.400;6.770;2024-01-30T04:33:33;7.90;99.90
32614;DHT22;19031;51.400;6.770;2024-01-30T04:35:58;7.90;99.90
32614;DHT22;19031;51.400;6.770;2024-01-30T04:38:24;7.90;99.90
32614;DHT22;19031;51.400;6.770;2024-01-30T04:40:49;7.90;99.90
32614;DHT22;19031;51.400;6.770;2024-01-30T04:43:15;7.80;99.90
32614;DHT22;19031;51.400;6.770;2024-01-30T04:45:41;7.90;99.90
32614;DHT22;19031;51.400;6.770;2024-01-30T04:48:07;7.90;99.90
32614;DHT22;19031;51.400;6.770;2024-01-30T04:50:33;7.90;99.90
32614;DHT22;19031;51.400;6.770;2024-01-30T04:52:58;7.90;99.90
32614;DHT22;19031;51.400;6.770;2024-01-30T04:55:24;7.90;99.90
32614;DHT22;19031;51.400;6.770;2024-01-30T04:57:50;7.90;99.90
32614;DHT22;19031;51.400;6.770;2024-01-30T05:00:16;7.90;99.90
32614;DHT22;19031;51.400;6.770;2024-01-30T05:02:41;7.90;99.90
32614;DHT22;19031;51.400;6.770;2024-01-30T05:05:07;8.00;99.90
32614;DHT22;19031;51.400;6.770;2024-01-30T05:07:33;8.00;99.90
32614;DHT22;19031;51.400;6.770;2024-01-30T05:09:59;8.00;99.90
32614;DHT22;19031;51.400;6.770;2024-01-30T05:12:25;8.00;99.90
32614;DHT22;19031;51.400;6.770;2024-01-30T05:14:50;8.10;99.90
32614;DHT22;19031;51.400;6.770;2024-01-30T05:17:16;8.10;99.90
32614;DHT22;19031;51.400;6.770;2024-01-30T05:19:43;8.10;99.90
32614;DHT22;19031;51.400;6.770;2024-01-30T05:22:08;8.10;99.90
32614;DHT22;19031;51.400;6.770;2024-01-30T05:24:35;8.10;99.90
32614;DHT22;19031;51.400;6.770;2024-01-30T05:27:01;8.10;99.90
32614;DHT22;19031;51.400;6.770;2024-01-30T05:29:27;8.10;99.90
32614;DHT22;19031;51.400;6.770;2024-01-30T05:31:52;8.10;99.90
32614;DHT22;19031;51.400;6.770;2024-01-30T05:34:18;8.10;99.90
32614;DHT22;19031;51.400;6.770;2024-01-30T05:36:43;8.10;99.90
32614;DHT22;19031;51.400;6.770;2024-01-30T05:39:09;8.10;99.90
32614;DHT22;19031;51.400;6.770;2024-01-30T05:41:35;8.00;99.90
32614;DHT22;19031;51.400;6.770;2024-01-30T05:44:01;8.10;99.90
32614;DHT22;19031;51.400;6.770;2024-01-30T05:46:27;8.00;99.90
32614;DHT22;19031;51.400;6.770;2024-01-30T05:48:52;8.10;99.90
32614;DHT22;19031;51.400;6.770;2024-01-30T05:51:18;8.00;99.90
32614;DHT22;19031;51.400;6.770;2024-01-30T05:53:43;8.00;99.90
32614;DHT22;19031;51.400;6.770;2024-01-30T05:56:09;8.00;99.90
32614;DHT22;19031;51.400;6.770;2024-01-30T05:58:35;8.00;99.90
32614;DHT22;19031;51.400;6.770;2024-01-30T06:01:00;8.00;99.90
32614;DHT22;19031;51.400;6.770;2024-01-30T06:03:26;8.00;99.90
32614;DHT22;19031;51.400;6.770;2024-01-30T06:05:51;8.00;99.90
32614;DHT22;19031;51.400;6.770;2024-01-30T06:08:17;8.00;99.90
32614;DHT22;19031;51.400;6.770;2024-01-30T06:10:43;8.00;99.90
32614;DHT22;19031;51.400;6.770;2024-01-30T06:13:08;8.00;99.90
32614;DHT22;19031;51.400;6.770;2024-01-30T06:15:34;8.00;99.90
32614;DHT22;19031;51.400;6.770;2024-01-30T06:18:00;8.00;99.90
32614;DHT22;19031;51.400;6.770;2024-01-30T06:20:25;7.90;99.90
32614;DHT22;19031;51.400;6.770;2024-01-30T06:22:51;8.00;99.90
32614;DHT22;19031;51.400;6.770;2024-01-30T06:25:16;8.00;99.90
32614;DHT22;19031;51.400;6.770;2024-01-30T06:27:42;8.10;99.90
32614;DHT22;19031;51.400;6.770;2024-01-30T06:30:08;8.20;99.90
32614;DHT22;19031;51.400;6.770;2024-01-30T06:32:35;8.20;99.90
32614;DHT22;19031;51.400;6.770;2024-01-30T06:35:01;8.10;99.90
32614;DHT22;19031;51.400;6.770;2024-01-30T06:37:27;8.20;99.90
32614;DHT22;19031;51.400;6.770;2024-01-30T06:39:53;8.20;99.90
32614;DHT22;19031;51.400;6.770;2024-01-30T06:42:19;8.20;99.90
32614;DHT22;19031;51.400;6.770;2024-01-30T06:44:44;8.20;99.90
32614;DHT22;19031;51.400;6.770;2024-01-30T06:47:10;8.30;99.90
32614;DHT22;19031;51.400;6.770;2024-01-30T06:49:36;8.30;99.90
32614;DHT22;19031;51.400;6.770;2024-01-30T06:52:08;8.40;99.90
32614;DHT22;19031;51.400;6.770;2024-01-30T06:54:33;8.40;99.90
32614;DHT22;19031;51.400;6.770;2024-01-30T06:56:59;8.40;99.90
32614;DHT22;19031;51.400;6.770;2024-01-30T06:59:25;8.40;99.90
32614;DHT22;19031;51.400;6.770;2024-01-30T07:01:51;8.40;99.90
32614;DHT22;19031;51.400;6.770;2024-01-30T07:04:17;8.40;99.90
32614;DHT22;19031;51.400;6.770;2024-01-30T07:06:43;8.50;99.90
32614;DHT22;19031;51.400;6.770;2024-01-30T07:09:09;8.50;99.90
32614;DHT22;19031;51.400;6.770;2024-01-30T07:11:35;8.40;99.90
32614;DHT22;19031;51.400;6.770;2024-01-30T07:14:00;8.40;99.90
32614;DHT22;19031;51.400;6.770;2024-01-30T07:16:29;8.40;99.90
32614;DHT22;19031;51.400;6.770;2024-01-30T07:18:54;8.50;99.90
32614;DHT22;19031;51.400;6.770;2024-01-30T07:21:21;8.50;99.90
32614;DHT22;19031;51.400;6.770;2024-01-30T07:23:50;8.50;99.90
32614;DHT22;19031;51.400;6.770;2024-01-30T07:26:16;8.50;99.90
32614;DHT22;19031;51.400;6.770;2024-01-30T07:28:41;8.50;99.90
32614;DHT22;19031;51.400;6.770;2024-01-30T07:31:07;8.60;99.90
32614;DHT22;19031;51.400;6.770;2024-01-30T07:33:32;8.50;99.90
32614;DHT22;19031;51.400;6.770;2024-01-30T07:35:58;8.50;99.90
32614;DHT22;19031;51.400;6.770;2024-01-30T07:38:23;8.60;99.90
32614;DHT22;19031;51.400;6.770;2024-01-30T07:40:49;8.50;99.90
32614;DHT22;19031;51.400;6.770;2024-01-30T07:43:15;8.50;99.90
32614;DHT22;19031;51.400;6.770;2024-01-30T07:45:40;8.50;99.90
32614;DHT22;19031;51.400;6.770;2024-01-30T07:48:06;8.50;99.90
32614;DHT22;19031;51.400;6.770;2024-01-30T07:50:32;8.60;99.90
32614;DHT22;19031;51.400;6.770;2024-01-30T07:53:00;8.60;99.90
32614;DHT22;19031;51.400;6.770;2024-01-30T07:55:25;8.60;99.90
32614;DHT22;19031;51.400;6.770;2024-01-30T08:01:28;8.80;99.90
32614;DHT22;19031;51.400;6.770;2024-01-30T08:03:54;8.90;99.90
32614;DHT22;19031;51.400;6.770;2024-01-30T08:06:19;8.80;99.90
32614;DHT22;19031;51.400;6.770;2024-01-30T08:08:45;8.90;99.90
32614;DHT22;19031;51.400;6.770;2024-01-30T08:11:10;8.90;99.90
32614;DHT22;19031;51.400;6.770;2024-01-30T08:13:36;8.90;99.90
32614;DHT22;19031;51.400;6.770;2024-01-30T08:16:01;8.90;99.90
32614;DHT22;19031;51.400;6.770;2024-01-30T08:18:27;9.00;99.90
32614;DHT22;19031;51.400;6.770;2024-01-30T08:20:52;8.90;99.90
32614;DHT22;19031;51.400;6.770;2024-01-30T08:23:18;9.10;99.90
32614;DHT22;19031;51.400;6.770;2024-01-30T08:25:44;9.10;99.90
32614;DHT22;19031;51.400;6.770;2024-01-30T08:28:09;9.10;99.90
32614;DHT22;19031;51.400;6.770;2024-01-30T08:30:35;9.10;99.90
32614;DHT22;19031;51.400;6.770;2024-01-30T08:33:01;9.20;99.90
32614;DHT22;19031;51.400;6.770;2024-01-30T08:35:26;9.20;99.90
32614;DHT22;19031;51.400;6.770;2024-01-30T08:37:52;9.20;99.90
32614;DHT22;19031;51.400;6.770;2024-01-30T08:40:17;9.30;99.90
32614;DHT22;19031;51.400;6.770;2024-01-30T08:42:43;9.30;99.90
32614;DHT22;19031;51.400;6.770;2024-01-30T08:45:09;9.30;99.90
32614;DHT22;19031;51.400;6.770;2024-01-30T08:47:34;9.50;99.90
32614;DHT22;19031;51.400;6.770;2024-01-30T08:50:00;9.40;99.90
32614;DHT22;19031;51.400;6.770;2024-01-30T08:52:26;9.40;99.90
32614;DHT22;19031;51.400;6.770;2024-01-30T08:54:51;9.50;99.90
32614;DHT22;19031;51.400;6.770;2024-01-30T08:57:17;9.50;99.90
32614;DHT22;19031;51.400;6.770;2024-01-30T08:59:42;9.50;99.90
32614;DHT22;19031;51.400;6.770;2024-01-30T09:02:11;9.40;99.90
32614;DHT22;19031;51.400;6.770;2024-01-30T09:04:38;9.50;99.90
32614;DHT22;19031;51.400;6.770;2024-01-30T09:07:04;9.60;99.90
32614;DHT22;19031;51.400;6.770;2024-01-30T09:09:33;9.60;99.90
32614;DHT22;19031;51.400;6.770;2024-01-30T09:11:59;9.50;99.90
32614;DHT22;19031;51.400;6.770;2024-01-30T09:14:29;9.60;99.90
32614;DHT22;19031;51.400;6.770;2024-01-30T09:16:56;9.70;99.90
32614;DHT22;19031;51.400;6.770;2024-01-30T09:19:21;9.70;99.90
32614;DHT22;19031;51.400;6.770;2024-01-30T09:21:47;9.80;99.90
32614;DHT22;19031;51.400;6.770;2024-01-30T09:24:12;9.80;99.90
32614;DHT22;19031;51.400;6.770;2024-01-30T09:26:38;9.90;99.90
32614;DHT22;19031;51.400;6.770;2024-01-30T09:29:03;10.00;99.90
32614;DHT22;19031;51.400;6.770;2024-01-30T09:31:29;10.00;99.90
32614;DHT22;19031;51.400;6.770;2024-01-30T09:33:54;10.20;99.90
32614;DHT22;19031;51.400;6.770;2024-01-30T09:36:20;10.30;99.90
32614;DHT22;19031;51.400;6.770;2024-01-30T09:38:46;10.40;99.90
32614;DHT22;19031;51.400;6.770;2024-01-30T09:41:12;10.50;99.90
32614;DHT22;19031;51.400;6.770;2024-01-30T09:43:38;10.60;99.90
32614;DHT22;19031;51.400;6.770;2024-01-30T09:46:11;10.50;99.90
32614;DHT22;19031;51.400;6.770;2024-01-30T09:48:39;10.70;99.90
32614;DHT22;19031;51.400;6.770;2024-01-30T09:51:07;10.70;99.90
32614;DHT22;19031;51.400;6.770;2024-01-30T09:53:32;10.70;99.90
32614;DHT22;19031;51.400;6.770;2024-01-30T09:55:58;10.80;99.90
32614;DHT22;19031;51.400;6.770;2024-01-30T09:58:24;10.90;99.90
32614;DHT22;19031;51.400;6.770;2024-01-30T10:00:49;11.00;99.90
32614;DHT22;19031;51.400;6.770;2024-01-30T10:03:15;11.10;99.90
32614;DHT22;19031;51.400;6.770;2024-01-30T10:05:40;11.20;99.90
32614;DHT22;19031;51.400;6.770;2024-01-30T10:08:07;11.30;99.90
32614;DHT22;19031;51.400;6.770;2024-01-30T10:10:34;11.40;99.90
32614;DHT22;19031;51.400;6.770;2024-01-30T10:13:00;11.30;99.90
32614;DHT22;19031;51.400;6.770;2024-01-30T10:15:27;11.40;99.90
32614;DHT22;19031;51.400;6.770;2024-01-30T10:17:53;11.50;99.90
32614;DHT22;19031;51.400;6.770;2024-01-30T10:20:19;11.40;99.90
32614;DHT22;19031;51.400;6.770;2024-01-30T10:22:45;11.50;99.90
32614;DHT22;19031;51.400;6.770;2024-01-30T10:25:11;11.60;99.90
32614;DHT22;19031;51.400;6.770;2024-01-30T10:27:39;11.60;99.90
32614;DHT22;19031;51.400;6.770;2024-01-30T10:30:05;11.50;99.90
32614;DHT22;19031;51.400;6.770;2024-01-30T10:32:30;11.60;99.90
32614;DHT22;19031;51.400;6.770;2024-01-30T10:34:56;11.80;99.90
32614;DHT22;19031;51.400;6.770;2024-01-30T10:37:25;11.70;99.90
32614;DHT22;19031;51.400;6.770;2024-01-30T10:39:53;11.80;99.90
32614;DHT22;19031;51.400;6.770;2024-01-30T10:42:19;11.90;99.90
32614;DHT22;19031;51.400;6.770;2024-01-30T10:45:07;12.00;99.90
32614;DHT22;19031;51.400;6.770;2024-01-30T10:47:35;12.00;99.90
32614;DHT22;19031;51.400;6.770;2024-01-30T10:50:02;12.00;99.90
32614;DHT22;19031;51.400;6.770;2024-01-30T10:52:29;12.10;99.90
32614;DHT22;19031;51.400;6.770;2024-01-30T10:54:55;12.10;99.90
32614;DHT22;19031;51.400;6.770;2024-01-30T10:57:28;12.00;99.90
32614;DHT22;19031;51.400;6.770;2024-01-30T10:59:56;12.10;99.90
32614;DHT22;19031;51.400;6.770;2024-01-30T11:02:23;12.20;99.90
32614;DHT22;19031;51.400;6.770;2024-01-30T11:04:49;12.10;99.90
32614;DHT22;19031;51.400;6.770;2024-01-30T11:07:23;12.30;99.90
32614;DHT22;19031;51.400;6.770;2024-01-30T11:12:27;12.30;99.90
32614;DHT22;19031;51.400;6.770;2024-01-30T11:15:06;12.40;99.90
32614;DHT22;19031;51.400;6.770;2024-01-30T11:20:19;12.40;99.90
32614;DHT22;19031;51.400;6.770;2024-01-30T11:22:45;12.50;99.90
32614;DHT22;19031;51.400;6.770;2024-01-30T11:25:15;12.40;99.90
32614;DHT22;19031;51.400;6.770;2024-01-30T11:27:42;12.50;99.90
32614;DHT22;19031;51.400;6.770;2024-01-30T11:30:08;12.60;99.90
32614;DHT22;19031;51.400;6.770;2024-01-30T11:32:34;12.50;99.90
32614;DHT22;19031;51.400;6.770;2024-01-30T11:34:59;12.60;99.90
32614;DHT22;19031;51.400;6.770;2024-01-30T11:37:25;12.60;99.90
32614;DHT22;19031;51.400;6.770;2024-01-30T11:39:54;12.50;99.90
32614;DHT22;19031;51.400;6.770;2024-01-30T11:42:21;12.50;99.90
32614;DHT22;19031;51.400;6.770;2024-01-30T11:44:49;12.40;99.90
32614;DHT22;19031;51.400;6.770;2024-01-30T11:47:16;12.40;99.90
32614;DHT22;19031;51.400;6.770;2024-01-30T11:49:42;12.40;99.90
32614;DHT22;19031;51.400;6.770;2024-01-30T11:52:08;12.20;99.90
32614;DHT22;19031;51.400;6.770;2024-01-30T11:54:34;12.30;99.90
32614;DHT22;19031;51.400;6.770;2024-01-30T11:56:59;12.30;99.90
32614;DHT22;19031;51.400;6.770;2024-01-30T11:59:25;12.20;99.90
32614;DHT22;19031;51.400;6.770;2024-01-30T12:01:52;12.10;99.90
32614;DHT22;19031;51.400;6.770;2024-01-30T12:04:17;12.30;99.90
32614;DHT22;19031;51.400;6.770;2024-01-30T12:06:43;12.20;99.90
32614;DHT22;19031;51.400;6.770;2024-01-30T12:09:09;12.20;99.90
32614;DHT22;19031;51.400;6.770;2024-01-30T12:11:47;12.10;99.90
32614;DHT22;19031;51.400;6.770;2024-01-30T12:14:13;12.20;99.90
32614;DHT22;19031;51.400;6.770;2024-01-30T12:16:39;12.10;99.90
32614;DHT22;19031;51.400;6.770;2024-01-30T12:19:05;12.10;99.90
32614;DHT22;19031;51.400;6.770;2024-01-30T12:21:30;12.20;99.90
32614;DHT22;19031;51.400;6.770;2024-01-30T12:23:59;12.30;99.90
32614;DHT22;19031;51.400;6.770;2024-01-30T12:26:26;12.30;99.90
32614;DHT22;19031;51.400;6.770;2024-01-30T12:28:55;12.30;99.90
32614;DHT22;19031;51.400;6.770;2024-01-30T12:31:27;12.30;99.90
32614;DHT22;19031;51.400;6.770;2024-01-30T12:33:53;12.40;99.90
32614;DHT22;19031;51.400;6.770;2024-01-30T12:36:20;12.40;99.90
32614;DHT22;19031;51.400;6.770;2024-01-30T12:38:46;12.40;99.90
32614;DHT22;19031;51.400;6.770;2024-01-30T12:41:11;12.30;99.90
32614;DHT22;19031;51.400;6.770;2024-01-30T12:43:37;12.30;99.90
32614;DHT22;19031;51.400;6.770;2024-01-30T12:46:03;12.30;99.90
32614;DHT22;19031;51.400;6.770;2024-01-30T12:48:29;12.30;99.90
32614;DHT22;19031;51.400;6.770;2024-01-30T12:50:56;12.30;99.90
32614;DHT22;19031;51.400;6.770;2024-01-30T12:53:22;12.30;99.90
32614;DHT22;19031;51.400;6.770;2024-01-30T12:55:47;12.30;99.90
32614;DHT22;19031;51.400;6.770;2024-01-30T12:58:15;12.40;99.90
32614;DHT22;19031;51.400;6.770;2024-01-30T13:00:41;12.30;99.90
32614;DHT22;19031;51.400;6.770;2024-01-30T13:03:08;12.20;99.90
32614;DHT22;19031;51.400;6.770;2024-01-30T13:05:33;12.30;99.90
32614;DHT22;19031;51.400;6.770;2024-01-30T13:07:59;12.20;99.90
32614;DHT22;19031;51.400;6.770;2024-01-30T13:10:24;12.20;99.90
32614;DHT22;19031;51.400;6.770;2024-01-30T13:12:50;12.30;99.90
32614;DHT22;19031;51.400;6.770;2024-01-30T13:15:16;12.30;99.90
32614;DHT22;19031;51.400;6.770;2024-01-30T13:17:41;12.30;99.90
32614;DHT22;19031;51.400;6.770;2024-01-30T13:20:09;12.30;99.90
32614;DHT22;19031;51.400;6.770;2024-01-30T13:22:34;12.30;99.90
32614;DHT22;19031;51.400;6.770;2024-01-30T13:25:00;12.30;99.90
32614;DHT22;19031;51.400;6.770;2024-01-30T13:27:26;12.20;99.90
32614;DHT22;19031;51.400;6.770;2024-01-30T13:29:51;12.30;99.90
32614;DHT22;19031;51.400;6.770;2024-01-30T13:32:17;12.20;99.90
32614;DHT22;19031;51.400;6.770;2024-01-30T13:34:42;12.30;99.90
32614;DHT22;19031;51.400;6.770;2024-01-30T13:37:08;12.30;99.90
32614;DHT22;19031;51.400;6.770;2024-01-30T13:39:34;12.40;99.90
32614;DHT22;19031;51.400;6.770;2024-01-30T13:41:59;12.30;99.90
32614;DHT22;19031;51.400;6.770;2024-01-30T13:44:25;12.50;99.90
32614;DHT22;19031;51.400;6.770;2024-01-30T13:46:51;12.50;99.90
32614;DHT22;19031;51.400;6.770;2024-01-30T13:49:16;12.50;99.90
32614;DHT22;19031;51.400;6.770;2024-01-30T13:51:42;12.50;99.90
32614;DHT22;19031;51.400;6.770;2024-01-30T13:54:07;12.60;99.90
32614;DHT22;19031;51.400;6.770;2024-01-30T13:56:33;12.60;99.90
32614;DHT22;19031;51.400;6.770;2024-01-30T13:58:59;12.60;99.90
32614;DHT22;19031;51.400;6.770;2024-01-30T14:01:26;12.60;99.90
32614;DHT22;19031;51.400;6.770;2024-01-30T14:03:52;12.60;99.90
32614;DHT22;19031;51.400;6.770;2024-01-30T14:06:18;12.70;99.90
32614;DHT22;19031;51.400;6.770;2024-01-30T14:08:43;12.70;99.90
32614;DHT22;19031;51.400;6.770;2024-01-30T14:11:09;12.70;99.90
32614;DHT22;19031;51.400;6.770;2024-01-30T14:13:35;12.80;99.90
32614;DHT22;19031;51.400;6.770;2024-01-30T14:16:00;12.70;99.90
32614;DHT22;19031;51.400;6.770;2024-01-30T14:18:26;12.70;99.90
32614;DHT22;19031;51.400;6.770;2024-01-30T14:20:52;12.70;99.90
32614;DHT22;19031;51.400;6.770;2024-01-30T14:23:18;12.80;99.90
32614;DHT22;19031;51.400;6.770;2024-01-30T14:25:43;12.60;99.90
32614;DHT22;19031;51.400;6.770;2024-01-30T14:28:09;12.60;99.90
32614;DHT22;19031;51.400;6.770;2024-01-30T14:30:35;12.50;99.90
32614;DHT22;19031;51.400;6.770;2024-01-30T14:33:01;12.50;99.90
32614;DHT22;19031;51.400;6.770;2024-01-30T14:35:27;12.60;99.90
32614;DHT22;19031;51.400;6.770;2024-01-30T14:37:52;12.50;99.90
32614;DHT22;19031;51.400;6.770;2024-01-30T14:40:18;12.50;99.90
32614;DHT22;19031;51.400;6.770;2024-01-30T14:42:44;12.40;99.90
32614;DHT22;19031;51.400;6.770;2024-01-30T14:45:11;12.50;99.90
32614;DHT22;19031;51.400;6.770;2024-01-30T14:47:37;12.50;99.90
32614;DHT22;19031;51.400;6.770;2024-01-30T14:50:03;12.40;99.90
32614;DHT22;19031;51.400;6.770;2024-01-30T14:52:30;12.40;99.90
32614;DHT22;19031;51.400;6.770;2024-01-30T14:54:57;12.30;99.90
32614;DHT22;19031;51.400;6.770;2024-01-30T14:57:23;12.20;99.90
32614;DHT22;19031;51.400;6.770;2024-01-30T14:59:49;12.20;99.90
32614;DHT22;19031;51.400;6.770;2024-01-30T15:02:14;12.20;99.90
32614;DHT22;19031;51.400;6.770;2024-01-30T15:04:40;12.10;99.90
32614;DHT22;19031;51.400;6.770;2024-01-30T15:07:05;12.20;99.90
32614;DHT22;19031;51.400;6.770;2024-01-30T15:09:31;12.10;99.90
32614;DHT22;19031;51.400;6.770;2024-01-30T15:11:57;12.00;99.90
32614;DHT22;19031;51.400;6.770;2024-01-30T15:14:23;12.00;99.90
32614;DHT22;19031;51.400;6.770;2024-01-30T15:16:49;11.80;99.90
32614;DHT22;19031;51.400;6.770;2024-01-30T15:19:15;11.80;99.90
32614;DHT22;19031;51.400;6.770;2024-01-30T15:21:40;11.70;99.90
32614;DHT22;19031;51.400;6.770;2024-01-30T15:24:06;11.70;99.90
32614;DHT22;19031;51.400;6.770;2024-01-30T15:26:32;11.60;99.90
32614;DHT22;19031;51.400;6.770;2024-01-30T15:28:57;11.60;99.90
32614;DHT22;19031;51.400;6.770;2024-01-30T15:31:23;11.40;99.90
32614;DHT22;19031;51.400;6.770;2024-01-30T15:33:48;11.50;99.90
32614;DHT22;19031;51.400;6.770;2024-01-30T15:36:14;11.40;99.90
32614;DHT22;19031;51.400;6.770;2024-01-30T15:38:40;11.40;99.90
32614;DHT22;19031;51.400;6.770;2024-01-30T15:41:06;11.40;99.90